Alvarado, Indiana
Current Conditions -  °F | °C
As of 8:35 PM on Tuesday 21 Oct 2014 (Local Time) from KANQ Reporting Station
Overcast Overcast  
Wind Chill: 45°   Ceiling: 3700
Heat Index: 45°   Visibility: 10mi
Dew Point: 27°   Wind: 3mph
Humidity: 49%   Direction: 10°N
Pressure: 30.19"   Gusts: NA
Location:  41.5557°N, 84.8806°W
Report Text: KANQ 220035Z AUTO 01003KT 10SM OVC037 07/M03 A3019 RMK
Loading
Personal Weather Stations






























Interactive Weather Map
Tropical Storm Tracking
New forecast layout! Learn more

10-Day Weather Forecast

Advertisements
Track Severe Weather on mobile